Hinesville, GA (31310)

3:58 PM EDT on August 31, 2015 (GMT -0400)
FTST HQ | | Change Station
CLOSE
Current Station
Personal Weather Station
Location: Hinesville, GA
Elevation: 85 ft
Nearby Weather Stations

Elev 85 ft 31.86 °N, 81.62 °W | Updated 30 minutes ago

Mostly Cloudy
Mostly Cloudy
92.8 °F
Feels Like 103 °F
N
2.7
Wind Variable Wind from WSW

Today
High -- | Low -- °F
--% Chance of Precip.
Yesterday
High -- | Low -- °F
Precip. -- in
7:01 AM 7:51 PM
Waning Gibbous, 94% visible
Pressure 30.06 in
Visibility 10.0 miles
Clouds Mostly Cloudy 3900 ft
Heat Index 103 °F
Dew Point 74 °F
Humidity 54%
Rainfall 0.00 in
Snow Depth Not available.
UV 6 out of 12
Pollen .80 out of 12
Air Quality Not available.
Flu Activity Not available.
METAR KLHW 311858Z AUTO VRB01KT 10SM BKN039 29/22 A3005 RMK AO2 SLP178 T02900218
Pressure 30.06 in
Visibility 10.0 miles
Clouds Mostly Cloudy 3900 ft
Heat Index 103 °F
Dew Point 74 °F
Humidity 54%
Rainfall 0.00 in
Snow Depth Not available.
UV 6 out of 12
Pollen .80 out of 12
Air Quality Not available.
Flu Activity Not available.
METAR KLHW 311858Z AUTO VRB01KT 10SM BKN039 29/22 A3005 RMK AO2 SLP178 T02900218

10-Day Weather Forecast

×

Almanac

Astronomy

Aug. 31, 2015 Rise Set
Actual Time
Civil Twilight
Nautical Twilight
Astronomical Twilight
Moon
Length of Visible Light
Length of Day
Tomorrow will be .
, % of the Moon is Illuminated

Today's Extremes

State Highs State Lows

Community

WunderPhotos

Upload Photos

1,851,346 photos uploaded!

WunderBlogs® & News

Nearby

Air Quality

  Air Quality AQ Index Pollutant
Not available.

Snow Depth

Station Depth Elevation

Earthquake Activity

City Distance Mag. Time & Date
Minimum magnitude displayed is 2.5.

Coastal Water Temperatures

Place Temperature

Stations

Nearby Weather Stations

Station Location Temp. Windchill Dew Point Humidity Wind Precip. Elev Updated Type